Forside
METAR-TAF:

METAR-TAF

Lufthavne :

Jakutsk, Rusland

Breddekreds: 62-01N, længdekreds: 129-43E, højde: 103 m

Aktuelle vejr

Denne rapport blev lavet for 18 minutter siden, kl. 17:00 UTC
Vind 6 kt fra nordvest
Temperatur 16°C
Fugtighed 77%
Tryk 1002 hPa
Sigt 10 km eller mere
Nogle få skyer i en højde af 5000 ft, Cumulonimbus.

METAR: UEEE 251700Z 31003MPS 9999 FEW050CB 16/12 Q1002 R23L/09//60 NOSIG RMK QFE743

Tid: 02:18 (17:18 UTC)

Vejrudsigter

Denne rapport blev lavet for 3 timer og 18 minutter siden, kl. 14:00 UTC
Foreløbig gælder fra 25 på 15 UTC til 26 på 21 UTC
Vind 6 kt fra nord
Sigt 10 km eller mere
Spredte skyer i en højde af 3300 ft, Cumulonimbus.

TAF: UEEE 251400Z 2515/2621 36003MPS 9999 SCT033CB

Vejrobservationer og prognoser fra mere end 4000 lufthavne (METAR og TAF).

De gule og røde prikker repræsenterer de meteorologiske stationer.

Flyt musen over at se navnet på stationen.

Så klik over at se vejr observationer og prognoser.

At skifte det kort: Klik på de grønne knapper med et sort kors for at zoome ind; på den grønne knap med en bindestreg for at zoome ud; eller på de grønne pile for tilstødende kort.


METAR-TAF: